Welcome to Northern Hawkes Bay. New Zealand.
PWS Header
      nz Flag



Hit Counter


W3C Valid W3C Valid logo


    Wairoa

Select any of the Stations below to visit their websites.










Historic Data from Weather Underground
Select the location of interest below. Wairoa is the default. Please have patience, this Data is slow to load in.
Northern Hawkes Bay Historical Data
Daily Summary for December 2, 2017 Units:  Metric    English   Both
« Previous Day
Next Day »
Daily Weekly Monthly Yearly Custom
  High: Low: Average:
Temperature: 27.4 °C 13.1 °C 20.8 °C
Dew Point: 16.6 °C 12.9 °C 15 °C
Humidity: 99% 50% 72%
Wind Speed: 13.4km/h 0.0km/h 4.6km/h
Wind Gust: 23.3km/h - -
Wind- - SW
Pressure: 1027.7 hPa 1019.5 hPa -
Precipitation: 0.0 mm    
Historical Graphs
 
 
Tabular Data for December 2, 2017
Time Temperature Dew Point Pressure Wind Wind Speed Wind Gust Humidity Rainfall Rate (Hourly) solar
00:02 16.7 °C 14.0 °C 1027.3 hPa Calm   7.2 km/h 84% 0.0 mm 0 W/m2
00:07 16.7 °C 14.0 °C 1027.7 hPa North 2.6 km/h 7.2 km/h 84% 0.0 mm 0 W/m2
00:22 16.5 °C 13.8 °C 1027.3 hPa Calm   5.0 km/h 84% 0.0 mm 0 W/m2
00:27 16.4 °C 13.9 °C 1027.3 hPa Calm   3.5 km/h 85% 0.0 mm 0 W/m2
00:32 16.3 °C 13.8 °C 1027.3 hPa Calm   3.5 km/h 85% 0.0 mm 0 W/m2
00:37 16.2 °C 13.7 °C 1027.3 hPa Calm   3.5 km/h 85% 0.0 mm 0 W/m2
00:47 16.1 °C 13.6 °C 1027.3 hPa Calm     85% 0.0 mm 0 W/m2
00:52 16.0 °C 13.7 °C 1027.3 hPa Calm   1.1 km/h 86% 0.0 mm 0 W/m2
00:57 15.9 °C 13.7 °C 1027.3 hPa Calm   1.1 km/h 87% 0.0 mm 0 W/m2
01:02 15.8 °C 13.7 °C 1027.0 hPa Calm   1.1 km/h 87% 0.0 mm 0 W/m2
01:12 15.6 °C 13.8 °C 1027.0 hPa NNW 1.1 km/h 5.0 km/h 89% 0.0 mm 0 W/m2
01:17 15.5 °C 13.7 °C 1027.0 hPa NNW 2.6 km/h 5.0 km/h 89% 0.0 mm 0 W/m2
01:22 15.5 °C 13.7 °C 1027.0 hPa NW 3.5 km/h 7.2 km/h 89% 0.0 mm 0 W/m2
01:27 15.5 °C 13.9 °C 1027.0 hPa NW 2.6 km/h 7.2 km/h 90% 0.0 mm 0 W/m2
01:32 15.4 °C 13.8 °C 1026.6 hPa NNW 6.1 km/h 8.7 km/h 90% 0.0 mm 0 W/m2
01:37 15.4 °C 13.8 °C 1026.6 hPa NNW 6.1 km/h 11.1 km/h 90% 0.0 mm 0 W/m2
01:42 15.4 °C 13.9 °C 1026.6 hPa North 6.1 km/h 11.1 km/h 91% 0.0 mm 0 W/m2
01:52 15.4 °C 13.9 °C 1026.6 hPa NW 5.0 km/h 11.1 km/h 91% 0.0 mm 0 W/m2
01:57 15.3 °C 13.8 °C 1026.6 hPa NNW 6.1 km/h 11.1 km/h 91% 0.0 mm 0 W/m2
02:02 15.3 °C 13.8 °C 1026.3 hPa NNW 7.2 km/h 11.1 km/h 91% 0.0 mm 0 W/m2
02:07 15.3 °C 13.8 °C 1026.3 hPa NNW 3.5 km/h 11.1 km/h 91% 0.0 mm 0 W/m2
02:26 15.1 °C 13.8 °C 1026.3 hPa NNW 2.6 km/h 7.2 km/h 92% 0.0 mm 0 W/m2
02:46 15.0 °C 13.9 °C 1026.3 hPa North 2.6 km/h 7.2 km/h 93% 0.0 mm 0 W/m2
02:51 14.9 °C 13.9 °C 1026.3 hPa North 3.5 km/h 7.2 km/h 94% 0.0 mm 0 W/m2
02:56 14.9 °C 13.9 °C 1026.3 hPa North 2.6 km/h 7.2 km/h 94% 0.0 mm 0 W/m2
03:01 14.8 °C 13.8 °C 1026.3 hPa Calm   5.0 km/h 94% 0.0 mm 0 W/m2
03:11 14.6 °C 13.7 °C 1026.3 hPa Calm   3.5 km/h 94% 0.0 mm 0 W/m2
03:16 14.4 °C 13.4 °C 1026.3 hPa Calm   2.6 km/h 94% 0.0 mm 0 W/m2
03:21 14.4 °C 13.6 °C 1026.0 hPa Calm   1.1 km/h 95% 0.0 mm 0 W/m2
03:26 14.4 °C 13.6 °C 1026.3 hPa Calm   2.6 km/h 95% 0.0 mm 0 W/m2
03:31 14.4 °C 13.6 °C 1026.3 hPa NNW 2.6 km/h 3.5 km/h 95% 0.0 mm 0 W/m2
03:42 14.3 °C 13.7 °C 1026.0 hPa Calm   5.0 km/h 96% 0.0 mm 0 W/m2
03:47 14.2 °C 13.6 °C 1026.0 hPa Calm   3.5 km/h 96% 0.0 mm 0 W/m2
03:57 13.9 °C 13.4 °C 1026.0 hPa Calm     97% 0.0 mm 0 W/m2
04:17 13.7 °C 13.2 °C 1026.3 hPa Calm     97% 0.0 mm 0 W/m2
04:37 13.5 °C 13.2 °C 1026.0 hPa NNW 1.1 km/h 2.6 km/h 98% 0.0 mm 0 W/m2
04:42 13.5 °C 13.2 °C 1026.0 hPa Calm   2.6 km/h 98% 0.0 mm 0 W/m2
04:47 13.4 °C 13.3 °C 1026.0 hPa NNW 1.1 km/h 3.5 km/h 99% 0.0 mm 0 W/m2
04:57 13.3 °C 13.2 °C 1026.0 hPa Calm   3.5 km/h 99% 0.0 mm 0 W/m2
05:02 13.3 °C 13.2 °C 1026.0 hPa NNW 1.1 km/h 3.5 km/h 99% 0.0 mm 0 W/m2
05:12 13.2 °C 13.1 °C 1026.0 hPa Calm   3.5 km/h 99% 0.0 mm 0 W/m2
05:17 13.1 °C 12.9 °C 1026.0 hPa NNW 1.1 km/h 5.0 km/h 99% 0.0 mm 0 W/m2
05:22 13.2 °C 13.1 °C 1025.6 hPa NNW 3.5 km/h 5.0 km/h 99% 0.0 mm 0 W/m2
05:37 13.3 °C 13.2 °C 1025.6 hPa NW 6.1 km/h 9.7 km/h 99% 0.0 mm 0 W/m2
05:42 13.3 °C 13.2 °C 1026.0 hPa NNW 6.1 km/h 11.1 km/h 99% 0.0 mm 2 W/m2
05:47 13.4 °C 13.3 °C 1025.6 hPa NNW 6.1 km/h 12.2 km/h 99% 0.0 mm 5 W/m2
05:57 13.4 °C 13.3 °C 1025.6 hPa NNW 7.2 km/h 14.8 km/h 99% 0.0 mm 12 W/m2
06:02 13.4 °C 13.3 °C 1025.6 hPa NNW 6.1 km/h 13.4 km/h 99% 0.0 mm 17 W/m2
06:12 13.4 °C 13.3 °C 1026.0 hPa NNW 3.5 km/h 11.1 km/h 99% 0.0 mm 24 W/m2
06:23 13.6 °C 13.4 °C 1025.6 hPa NNW 6.1 km/h 12.2 km/h 99% 0.0 mm 60 W/m2
06:28 14.2 °C 14.1 °C 1025.6 hPa NNW 5.0 km/h 13.4 km/h 99% 0.0 mm 67 W/m2
06:38 14.9 °C 14.3 °C 1025.6 hPa NNW 6.1 km/h 12.2 km/h 96% 0.0 mm 79 W/m2
06:43 15.3 °C 14.2 °C 1025.6 hPa North 3.5 km/h 12.2 km/h 93% 0.0 mm 85 W/m2
06:48 15.8 °C 14.3 °C 1025.6 hPa NNW 3.5 km/h 11.1 km/h 91% 0.0 mm 92 W/m2
07:03 16.5 °C 14.0 °C 1025.6 hPa NNW 3.5 km/h 13.4 km/h 85% 0.0 mm 118 W/m2
07:13 16.8 °C 14.3 °C 1025.6 hPa NNW 3.5 km/h 12.2 km/h 85% 0.0 mm 141 W/m2
07:18 17.1 °C 14.2 °C 1025.6 hPa NNW 5.0 km/h 9.7 km/h 83% 0.0 mm 153 W/m2
07:23 17.2 °C 14.1 °C 1025.6 hPa North 8.7 km/h 12.2 km/h 82% 0.0 mm 167 W/m2
07:33 17.8 °C 14.5 °C 1025.6 hPa North 5.0 km/h 12.2 km/h 81% 0.0 mm 188 W/m2
07:38 18.0 °C 14.5 °C 1025.6 hPa North 3.5 km/h 9.7 km/h 80% 0.0 mm 201 W/m2
07:53 18.5 °C 14.6 °C 1025.6 hPa NNW 2.6 km/h 12.2 km/h 78% 0.0 mm 236 W/m2
07:58 18.9 °C 14.8 °C 1025.6 hPa NNW 3.5 km/h 12.2 km/h 77% 0.0 mm 249 W/m2
08:03 19.2 °C 14.9 °C 1025.6 hPa NNE 3.5 km/h 12.2 km/h 76% 0.0 mm 262 W/m2
08:08 19.4 °C 14.9 °C 1025.6 hPa NNE 6.1 km/h 11.1 km/h 75% 0.0 mm 277 W/m2
08:13 19.9 °C 15.2 °C 1025.6 hPa North 8.7 km/h 12.2 km/h 74% 0.0 mm 291 W/m2
08:18 19.9 °C 15.2 °C 1025.6 hPa North 3.5 km/h 12.2 km/h 74% 0.0 mm 304 W/m2
08:23 20.2 °C 14.8 °C 1025.6 hPa North 6.1 km/h 13.4 km/h 71% 0.0 mm 318 W/m2
08:28 20.1 °C 14.4 °C 1025.6 hPa NNE 6.1 km/h 13.4 km/h 70% 0.0 mm 330 W/m2
08:33 20.2 °C 14.6 °C 1025.6 hPa North 7.2 km/h 13.4 km/h 70% 0.0 mm 345 W/m2
08:43 20.8 °C 15.4 °C 1025.6 hPa North 6.1 km/h 12.2 km/h 71% 0.0 mm 375 W/m2
08:48 20.9 °C 15.0 °C 1025.6 hPa North 5.0 km/h 11.1 km/h 69% 0.0 mm 389 W/m2
08:58 21.9 °C 15.5 °C 1025.6 hPa North 5.0 km/h 9.7 km/h 67% 0.0 mm 421 W/m2
09:03 21.9 °C 14.8 °C 1025.6 hPa NNW 3.5 km/h 8.7 km/h 64% 0.0 mm 436 W/m2
09:08 21.6 °C 14.5 °C 1025.6 hPa NNW 2.6 km/h 8.7 km/h 64% 0.0 mm 452 W/m2
09:13 22.2 °C 15.1 °C 1025.6 hPa North 3.5 km/h 8.7 km/h 64% 0.0 mm 468 W/m2
09:18 22.5 °C 14.9 °C 1025.6 hPa Calm   11.1 km/h 62% 0.0 mm 486 W/m2
09:23 22.6 °C 14.9 °C 1025.6 hPa NW 1.1 km/h 11.1 km/h 62% 0.0 mm 505 W/m2
09:28 23.1 °C 15.2 °C 1025.3 hPa North 2.6 km/h 9.7 km/h 61% 0.0 mm 522 W/m2
09:39 23.4 °C 14.9 °C 1025.3 hPa NE 3.5 km/h 11.1 km/h 59% 0.0 mm 561 W/m2
09:44 23.3 °C 14.8 °C 1025.3 hPa NNE 6.1 km/h 12.2 km/h 59% 0.0 mm 577 W/m2
09:54 24.2 °C 14.9 °C 1024.9 hPa Calm   9.7 km/h 56% 0.0 mm 630 W/m2
10:04 24.3 °C 14.7 °C 1024.9 hPa Calm   9.7 km/h 55% 0.0 mm 670 W/m2
10:19 25.4 °C 15.2 °C 1024.9 hPa North 2.6 km/h 6.1 km/h 53% 0.0 mm 726 W/m2
10:29 24.8 °C 14.6 °C 1024.9 hPa East 1.1 km/h 8.7 km/h 53% 0.0 mm 741 W/m2
10:34 24.8 °C 14.6 °C 1024.9 hPa ESE 1.1 km/h 8.7 km/h 53% 0.0 mm 748 W/m2
10:44 23.1 °C 16.4 °C 1024.9 hPa South 7.2 km/h 13.4 km/h 66% 0.0 mm 752 W/m2
10:49 23.0 °C 16.6 °C 1024.9 hPa SSE 6.1 km/h 13.4 km/h 67% 0.0 mm 762 W/m2
10:54 22.7 °C 16.1 °C 1024.9 hPa SSE 9.7 km/h 13.4 km/h 66% 0.0 mm 770 W/m2
10:59 22.3 °C 15.9 °C 1024.6 hPa South 11.1 km/h 14.8 km/h 67% 0.0 mm 775 W/m2
11:15 22.2 °C 15.3 °C 1024.6 hPa SSE 8.7 km/h 15.8 km/h 65% 0.0 mm 796 W/m2
11:20 22.5 °C 16.1 °C 1024.6 hPa SSE 6.1 km/h 14.8 km/h 67% 0.0 mm 805 W/m2
11:25 22.8 °C 15.7 °C 1024.6 hPa SSE 5.0 km/h 15.8 km/h 64% 0.0 mm 812 W/m2
11:30 22.7 °C 15.6 °C 1024.6 hPa SSE 8.7 km/h 15.8 km/h 64% 0.0 mm 815 W/m2
11:40 23.3 °C 15.1 °C 1024.6 hPa SSE 8.7 km/h 12.2 km/h 60% 0.0 mm 829 W/m2
11:45 23.4 °C 16.0 °C 1024.6 hPa South 6.1 km/h 12.2 km/h 63% 0.0 mm 835 W/m2
11:50 23.9 °C 16.2 °C 1024.3 hPa South 7.2 km/h 11.1 km/h 62% 0.0 mm 840 W/m2
11:55 24.2 °C 16.2 °C 1024.6 hPa SE 6.1 km/h 12.2 km/h 61% 0.0 mm 843 W/m2
12:00 24.3 °C 15.8 °C 1024.3 hPa ESE 5.0 km/h 12.2 km/h 59% 0.0 mm 846 W/m2
12:01 24.3 °C 15.5 °C 1024.3 hPa SE 6.1 km/h 13.4 km/h 58% 0.0 mm 847 W/m2
12:06 24.3 °C 15.5 °C 1024.3 hPa East 5.0 km/h 14.8 km/h 58% 0.0 mm 845 W/m2
12:21 23.8 °C 15.3 °C 1024.3 hPa South 1.1 km/h 15.8 km/h 59% 0.0 mm 840 W/m2
12:26 24.2 °C 15.4 °C 1024.3 hPa SE 3.5 km/h 15.8 km/h 58% 0.0 mm 845 W/m2
12:31 24.2 °C 15.2 °C 1023.9 hPa SE 3.5 km/h 15.8 km/h 57% 0.0 mm 845 W/m2
12:36 24.0 °C 15.2 °C 1023.9 hPa SE 6.1 km/h 17.2 km/h 58% 0.0 mm 843 W/m2
12:41 24.1 °C 15.6 °C 1023.9 hPa SE 6.1 km/h 17.2 km/h 59% 0.0 mm 840 W/m2
12:46 24.0 °C 15.2 °C 1023.6 hPa SE 9.7 km/h 13.4 km/h 58% 0.0 mm 839 W/m2
12:51 24.0 °C 15.0 °C 1023.6 hPa SSE 3.5 km/h 17.2 km/h 57% 0.0 mm 835 W/m2
13:19 24.8 °C 15.7 °C 1023.2 hPa SSE 7.2 km/h 15.8 km/h 57% 0.0 mm 821 W/m2
13:29 24.8 °C 15.4 °C 1022.9 hPa SSE 2.6 km/h 12.2 km/h 56% 0.0 mm 808 W/m2
13:45 25.5 °C 15.2 °C 1022.9 hPa SE 7.2 km/h 14.8 km/h 53% 0.0 mm 794 W/m2
13:50 25.3 °C 15.1 °C 1022.9 hPa SE 5.0 km/h 14.8 km/h 53% 0.0 mm 790 W/m2
13:55 25.4 °C 14.8 °C 1022.9 hPa SE 3.5 km/h 14.8 km/h 52% 0.0 mm 783 W/m2
14:00 25.4 °C 15.2 °C 1022.9 hPa SE 5.0 km/h 13.4 km/h 53% 0.0 mm 776 W/m2
14:05 25.6 °C 15.3 °C 1022.9 hPa SE 3.5 km/h 17.2 km/h 53% 0.0 mm 773 W/m2
14:10 25.6 °C 15.3 °C 1022.6 hPa SE 3.5 km/h 17.2 km/h 53% 0.0 mm 767 W/m2
14:15 25.6 °C 14.7 °C 1022.6 hPa ESE 13.4 km/h 17.2 km/h 51% 0.0 mm 757 W/m2
14:25 25.8 °C 15.8 °C 1022.2 hPa ESE 7.2 km/h 17.2 km/h 54% 0.0 mm 750 W/m2
14:30 25.9 °C 15.9 °C 1022.2 hPa ESE 6.1 km/h 15.8 km/h 54% 0.0 mm 738 W/m2
14:35 26.2 °C 15.3 °C 1022.2 hPa ESE 3.5 km/h 15.8 km/h 51% 0.0 mm 727 W/m2
14:40 26.2 °C 15.6 °C 1022.2 hPa SE 5.0 km/h 13.4 km/h 52% 0.0 mm 722 W/m2
14:45 25.9 °C 15.9 °C 1021.9 hPa SSE 6.1 km/h 14.8 km/h 54% 0.0 mm 710 W/m2
14:50 26.4 °C 16.1 °C 1021.9 hPa SSE 6.1 km/h 14.8 km/h 53% 0.0 mm 708 W/m2
14:55 26.6 °C 15.9 °C 1021.9 hPa SE 6.1 km/h 15.8 km/h 52% 0.0 mm 699 W/m2
15:00 26.5 °C 15.9 °C 1021.9 hPa SE 3.5 km/h 15.8 km/h 52% 0.0 mm 689 W/m2
15:05 26.2 °C 15.9 °C 1021.9 hPa ESE 7.2 km/h 15.8 km/h 53% 0.0 mm 678 W/m2
15:10 26.0 °C 15.7 °C 1021.9 hPa ESE 5.0 km/h 14.8 km/h 53% 0.0 mm 664 W/m2
15:26 25.8 °C 15.8 °C 1021.6 hPa SE 9.7 km/h 18.3 km/h 54% 0.0 mm 639 W/m2
15:31 25.9 °C 16.2 °C 1021.6 hPa ESE 7.2 km/h 18.3 km/h 55% 0.0 mm 625 W/m2
15:41 26.2 °C 16.2 °C 1021.2 hPa ESE 5.0 km/h 23.3 km/h 54% 0.0 mm 604 W/m2
15:46 26.5 °C 16.2 °C 1021.2 hPa ESE 7.2 km/h 23.3 km/h 53% 0.0 mm 586 W/m2
15:51 26.3 °C 16.0 °C 1020.9 hPa ESE 7.2 km/h 18.3 km/h 53% 0.0 mm 586 W/m2
15:56 26.4 °C 16.1 °C 1020.9 hPa ESE 6.1 km/h 18.3 km/h 53% 0.0 mm 572 W/m2
16:01 26.6 °C 15.7 °C 1020.9 hPa ESE 5.0 km/h 18.3 km/h 51% 0.0 mm 568 W/m2
16:06 26.9 °C 16.2 °C 1020.9 hPa SE 6.1 km/h 17.2 km/h 52% 0.0 mm 557 W/m2
16:12 26.6 °C 15.9 °C 1020.9 hPa SE 3.5 km/h 17.2 km/h 52% 0.0 mm 543 W/m2
16:30 26.7 °C 16.1 °C 1020.5 hPa SE 6.1 km/h 15.8 km/h 52% 0.0 mm 498 W/m2
16:33 26.8 °C 16.2 °C 1020.5 hPa SE 3.5 km/h 15.8 km/h 52% 0.0 mm 492 W/m2
16:43 27.2 °C 16.2 °C 1020.5 hPa SSE 6.1 km/h 15.8 km/h 51% 0.0 mm 466 W/m2
16:45 27.1 °C 16.1 °C 1020.5 hPa SE 6.1 km/h 15.8 km/h 51% 0.0 mm 462 W/m2
16:50 26.6 °C 15.9 °C 1020.5 hPa SSE 8.7 km/h 15.8 km/h 52% 0.0 mm 451 W/m2
16:55 26.4 °C 15.8 °C 1020.2 hPa SE 6.1 km/h 15.8 km/h 52% 0.0 mm 436 W/m2
17:00 26.4 °C 15.8 °C 1020.2 hPa ESE 2.6 km/h 15.8 km/h 52% 0.0 mm 421 W/m2
17:06 26.7 °C 16.1 °C 1020.2 hPa ESE 7.2 km/h 13.4 km/h 52% 0.0 mm 408 W/m2
17:16 26.9 °C 16.2 °C 1019.9 hPa ESE 5.0 km/h 15.8 km/h 52% 0.0 mm 386 W/m2
17:26 27.1 °C 16.1 °C 1019.9 hPa ESE 7.2 km/h 13.4 km/h 51% 0.0 mm 360 W/m2
17:36 27.1 °C 16.1 °C 1019.5 hPa ESE 3.5 km/h 17.2 km/h 51% 0.0 mm 335 W/m2
17:41 27.1 °C 16.1 °C 1019.5 hPa ESE 2.6 km/h 12.2 km/h 51% 0.0 mm 321 W/m2
17:47 27.1 °C 16.1 °C 1019.5 hPa ESE 3.5 km/h 12.2 km/h 51% 0.0 mm 306 W/m2
17:52 26.6 °C 15.9 °C 1019.5 hPa ESE 7.2 km/h 14.8 km/h 52% 0.0 mm 294 W/m2
18:02 26.4 °C 15.8 °C 1019.5 hPa East 6.1 km/h 14.8 km/h 52% 0.0 mm 271 W/m2
18:12 26.1 °C 15.5 °C 1019.5 hPa East 6.1 km/h 13.4 km/h 52% 0.0 mm 245 W/m2
18:17 26.0 °C 15.7 °C 1019.5 hPa East 5.0 km/h 14.8 km/h 53% 0.0 mm 233 W/m2
18:22 26.2 °C 15.9 °C 1019.5 hPa East 7.2 km/h 14.8 km/h 53% 0.0 mm 221 W/m2
18:27 26.3 °C 15.7 °C 1019.5 hPa East 6.1 km/h 13.4 km/h 52% 0.0 mm 211 W/m2
18:42 27.4 °C 16.1 °C 1019.5 hPa Calm   6.1 km/h 50% 0.0 mm 183 W/m2
18:47 27.1 °C 16.1 °C 1019.5 hPa East 2.6 km/h 6.1 km/h 51% 0.0 mm 69 W/m2
18:53 25.3 °C 15.1 °C 1019.9 hPa North 9.7 km/h 20.9 km/h 53% 0.0 mm 72 W/m2
18:58 25.1 °C 15.2 °C 1019.9 hPa North 8.7 km/h 20.9 km/h 54% 0.0 mm 149 W/m2
19:03 25.3 °C 15.1 °C 1019.9 hPa North 11.1 km/h 17.2 km/h 53% 0.0 mm 107 W/m2
19:08 25.0 °C 14.8 °C 1019.9 hPa NNW 2.6 km/h 17.2 km/h 53% 0.0 mm 59 W/m2
19:13 24.3 °C 14.7 °C 1019.9 hPa North 7.2 km/h 15.8 km/h 55% 0.0 mm 45 W/m2
19:18 23.8 °C 15.1 °C 1019.9 hPa NNE 2.6 km/h 11.1 km/h 58% 0.0 mm 30 W/m2
19:23 23.3 °C 14.8 °C 1020.2 hPa North 1.1 km/h 9.7 km/h 59% 0.0 mm 23 W/m2
19:28 23.0 °C 14.8 °C 1020.2 hPa North 3.5 km/h 9.7 km/h 60% 0.0 mm 23 W/m2
19:38 22.7 °C 15.1 °C 1019.9 hPa Calm   8.7 km/h 62% 0.0 mm 16 W/m2
19:43 22.6 °C 14.9 °C 1019.9 hPa Calm   11.1 km/h 62% 0.0 mm 13 W/m2
19:48 22.4 °C 15.0 °C 1020.2 hPa Calm   12.2 km/h 63% 0.0 mm 11 W/m2
19:53 22.2 °C 15.1 °C 1020.2 hPa NNE 3.5 km/h 12.2 km/h 64% 0.0 mm 7 W/m2
19:58 22.0 °C 15.1 °C 1020.2 hPa NNE 1.1 km/h 12.2 km/h 65% 0.0 mm 3 W/m2
20:08 21.7 °C 15.6 °C 1020.5 hPa North 7.2 km/h 13.4 km/h 68% 0.0 mm 0 W/m2
20:13 21.6 °C 15.7 °C 1020.2 hPa North 7.2 km/h 13.4 km/h 69% 0.0 mm 0 W/m2
20:18 21.5 °C 15.8 °C 1020.5 hPa North 3.5 km/h 11.1 km/h 70% 0.0 mm 0 W/m2
20:23 21.4 °C 15.9 °C 1020.5 hPa NNW 7.2 km/h 14.8 km/h 71% 0.0 mm 0 W/m2
20:28 21.3 °C 15.8 °C 1020.5 hPa North 7.2 km/h 17.2 km/h 71% 0.0 mm 0 W/m2
20:33 21.0 °C 15.8 °C 1020.9 hPa North 6.1 km/h 17.2 km/h 72% 0.0 mm 0 W/m2
20:38 20.7 °C 15.7 °C 1020.5 hPa Calm   14.8 km/h 73% 0.0 mm 0 W/m2
20:43 20.4 °C 15.6 °C 1020.5 hPa NNW 7.2 km/h 12.2 km/h 74% 0.0 mm 0 W/m2
20:48 20.4 °C 15.6 °C 1020.9 hPa North 8.7 km/h 13.4 km/h 74% 0.0 mm 0 W/m2
20:53 20.3 °C 15.5 °C 1020.5 hPa North 3.5 km/h 13.4 km/h 74% 0.0 mm 0 W/m2
20:58 20.2 °C 15.7 °C 1020.9 hPa NNW 1.1 km/h 13.4 km/h 75% 0.0 mm 0 W/m2
21:03 20.1 °C 15.8 °C 1020.9 hPa NNW 2.6 km/h 14.8 km/h 76% 0.0 mm 0 W/m2
21:08 20.1 °C 15.8 °C 1020.9 hPa North 5.0 km/h 14.8 km/h 76% 0.0 mm 0 W/m2
21:13 20.2 °C 15.7 °C 1020.9 hPa North 2.6 km/h 13.4 km/h 75% 0.0 mm 0 W/m2
21:18 20.2 °C 15.7 °C 1021.2 hPa North 6.1 km/h 13.4 km/h 75% 0.0 mm 0 W/m2
21:23 20.4 °C 15.6 °C 1021.2 hPa NNW 6.1 km/h 18.3 km/h 74% 0.0 mm 0 W/m2
21:28 20.4 °C 15.6 °C 1021.2 hPa NNW 8.7 km/h 18.3 km/h 74% 0.0 mm 0 W/m2
21:33 20.4 °C 15.8 °C 1021.2 hPa NW 3.5 km/h 14.8 km/h 75% 0.0 mm 0 W/m2
21:38 20.4 °C 15.8 °C 1020.9 hPa NNW 9.7 km/h 15.8 km/h 75% 0.0 mm 0 W/m2
21:43 20.3 °C 15.9 °C 1021.2 hPa NNW 7.2 km/h 19.5 km/h 76% 0.0 mm 0 W/m2
21:48 20.1 °C 15.8 °C 1021.2 hPa NNW 12.2 km/h 21.9 km/h 76% 0.0 mm 0 W/m2
21:53 20.0 °C 15.7 °C 1021.2 hPa North 9.7 km/h 23.3 km/h 76% 0.0 mm 0 W/m2
21:58 19.9 °C 15.8 °C 1021.2 hPa NNW 11.1 km/h 23.3 km/h 77% 0.0 mm 0 W/m2
22:03 19.8 °C 15.9 °C 1021.2 hPa NW 11.1 km/h 19.5 km/h 78% 0.0 mm 0 W/m2
22:08 19.7 °C 15.8 °C 1021.2 hPa NW 8.7 km/h 21.9 km/h 78% 0.0 mm 0 W/m2
22:13 19.6 °C 15.9 °C 1021.2 hPa NNW 6.1 km/h 21.9 km/h 79% 0.0 mm 0 W/m2
22:28 19.3 °C 16.2 °C 1021.6 hPa NNW 2.6 km/h 15.8 km/h 82% 0.0 mm 0 W/m2
22:33 19.1 °C 16.3 °C 1021.2 hPa NW 6.1 km/h 11.1 km/h 84% 0.0 mm 0 W/m2
22:38 18.9 °C 16.3 °C 1020.9 hPa NW 6.1 km/h 13.4 km/h 85% 0.0 mm 0 W/m2
22:43 18.7 °C 16.3 °C 1020.9 hPa NW 2.6 km/h 13.4 km/h 86% 0.0 mm 0 W/m2
22:48 18.6 °C 16.4 °C 1020.9 hPa NNW 2.6 km/h 12.2 km/h 87% 0.0 mm 0 W/m2
22:53 18.7 °C 16.3 °C 1020.9 hPa NNW 3.5 km/h 12.2 km/h 86% 0.0 mm 0 W/m2
23:03 18.8 °C 16.1 °C 1020.9 hPa NNW 2.6 km/h 15.8 km/h 84% 0.0 mm 0 W/m2
23:08 18.8 °C 16.1 °C 1020.9 hPa NNW 6.1 km/h 12.2 km/h 84% 0.0 mm 0 W/m2
23:13 18.8 °C 16.1 °C 1020.9 hPa NNW 6.1 km/h 12.2 km/h 84% 0.0 mm 0 W/m2
23:18 18.7 °C 15.8 °C 1020.9 hPa North 7.2 km/h 14.8 km/h 83% 0.0 mm 0 W/m2
23:23 18.7 °C 15.8 °C 1020.9 hPa North 6.1 km/h 14.8 km/h 83% 0.0 mm 0 W/m2
23:28 18.7 °C 15.6 °C 1020.9 hPa NNW 5.0 km/h 14.8 km/h 82% 0.0 mm 0 W/m2
23:33 18.7 °C 15.6 °C 1020.9 hPa NNW 5.0 km/h 14.8 km/h 82% 0.0 mm 0 W/m2
23:38 18.6 °C 15.7 °C 1020.9 hPa North 5.0 km/h 11.1 km/h 83% 0.0 mm 0 W/m2
23:43 18.6 °C 15.3 °C 1020.9 hPa North 7.2 km/h 13.4 km/h 81% 0.0 mm 0 W/m2
23:48 18.7 °C 15.2 °C 1020.5 hPa North 5.0 km/h 15.8 km/h 80% 0.0 mm 0 W/m2
23:53 18.7 °C 15.0 °C 1020.5 hPa North 6.1 km/h 15.8 km/h 79% 0.0 mm 0 W/m2
Northern Hawkes Bay. New Zealand Historic Data
Compliments of Weather Underground - 2 mb